• Join FlightAware (Why Join?)
  • Login
  • US Flag 
08:32AM EDT


 

Airport Tracker/Info


-or-


 

Live Flight TrackerFlight Track Log ✈ SWA1535 ✈ 03-May-2013 ✈ KOMA - KDEN

Flight Track Log - Related Links

Times and Time Zones

All times are in EDT time to prevent confusion due to time zone crossing. See the SWA1535 flight status page for this flight to view local times or setup timezone preferences in your user account.

Time Position Orientation Groundspeed Altitude Reporting Facility
EDT Latitude Longitude Course Direction KTS MPH feet Rate Location/Type
09:18PM 41.3358 -95.9397 318° Northwest 177 204 4,000  Level Minneapolis Center
09:19PM 41.3492 -95.9472 337° Northwest 179 206 5,300 3,180 Climbing Minneapolis Center
09:20PM 41.3933 -96.0344 304° West 241 277 8,900 3,000 Climbing Minneapolis Center
09:21PM 41.4206 -96.1369 290° West 287 330 11,600 2,880 Climbing Minneapolis Center
09:22PM 41.4497 -96.2661 287° West 334 384 14,900 3,180 Climbing Minneapolis Center
09:23PM 41.4692 -96.4025 281° West 364 419 18,200 3,000 Climbing Minneapolis Center
09:24PM 41.4628 -96.5481 267° West 392 451 21,200 2,760 Climbing Minneapolis Center
09:25PM 41.4558 -96.7294 267° West 404 465 24,000 2,460 Climbing Minneapolis Center
09:26PM 41.4483 -96.8931 267° West 422 486 26,300 2,100 Climbing Minneapolis Center
09:27PM 41.4408 -97.0592 267° West 437 503 28,400 1,800 Climbing Minneapolis Center
09:28PM 41.4319 -97.2339 266° West 453 521 30,100 1,560 Climbing Minneapolis Center
09:29PM 41.4231 -97.4161 266° West 476 548 31,700 1,860 Climbing Minneapolis Center
09:30PM 41.4142 -97.5956 266° West 487 560 34,000 2,400 Climbing Minneapolis Center
09:31PM 41.4061 -97.7708 267° West 481 554 36,700 1,980 Climbing Minneapolis Center
09:32PM 41.3964 -97.9675 266° West 451 519 38,100 1,560 Climbing Minneapolis Center
09:33PM 41.3875 -98.1342 266° West 448 516 40,000 900 Climbing Minneapolis Center
09:34PM 41.3789 -98.2986 266° West 447 514 40,000  Level Minneapolis Center
09:35PM 41.3472 -98.4706 256° West 450 518 40,000  Level Minneapolis Center
09:36PM 41.3117 -98.6142 252° West 448 516 40,000  Level Minneapolis Center
09:37PM 41.2742 -98.7714 252° West 447 514 40,000  Level Minneapolis Center
09:38PM 41.2400 -98.9053 251° West 446 513 40,000  Level Denver Center
09:39PM 41.2311 -99.0617 266° West 446 513 40,000  Level Denver Center
09:40PM 41.2294 -99.2108 269° West 438 504 40,000  Level Denver Center
09:41PM 41.2283 -99.4078 270° West 443 510 40,000  Level Denver Center
09:42PM 41.2267 -99.5806 269° West 444 511 40,000  Level Denver Center
09:43PM 41.2214 -99.7364 267° West 443 510 40,000  Level Denver Center
09:44PM 41.1917 -99.8900 256° West 448 516 40,000  Level Denver Center
09:45PM 41.1589 -100.0669 256° West 445 512 40,000  Level Denver Center
09:46PM 41.1308 -100.2186 256° West 445 512 40,000  Level Denver Center
09:47PM 41.0983 -100.3947 256° West 443 510 40,000  Level Denver Center
09:48PM 41.0703 -100.5453 256° West 442 509 40,000  Level Denver Center
09:49PM 41.0369 -100.7211 256° West 445 512 40,000  Level Denver Center
09:50PM 41.0031 -100.8942 256° West 443 510 40,000  Level Denver Center
09:51PM 40.9742 -101.0422 256° West 439 505 40,000  Level Denver Center
09:52PM 40.9414 -101.2147 256° West 436 502 40,000  Level Denver Center
09:54PM 40.9133 -101.3578 255° West 426 490 40,000  Level Denver Center
09:55PM 40.8789 -101.5242 255° West 421 484 40,000  Level Denver Center
09:56PM 40.8511 -101.6700 256° West 427 491 40,000  Level Denver Center
09:57PM 40.8161 -101.8414 255° West 435 501 40,000  Level Denver Center
09:58PM 40.7850 -101.9875 254° West 434 499 40,000  Level Denver Center
09:59PM 40.7511 -102.1600 256° West 437 503 40,000  Level Denver Center
10:00PM 40.7206 -102.3056 255° West 433 498 40,000  Level Denver Center
10:01PM 40.6903 -102.4503 255° West 430 495 40,000  Level Denver Center
10:02PM 40.6550 -102.6189 255° West 429 494 40,000  Level Denver Center
10:03PM 40.6256 -102.7664 255° West 428 493 40,000 -300 Level Denver Center
10:04PM 40.5928 -102.9192 254° West 431 496 39,500 -1,440 Descending Denver Center
10:05PM 40.5611 -103.0689 254° West 421 484 37,100 -2,880 Descending Denver Center
10:06PM 40.5244 -103.2419 254° West 418 481 33,600 -3,000 Descending Denver Center
10:07PM 40.4928 -103.3878 254° West 413 475 30,900 -2,460 Descending Denver Center
10:08PM 40.4614 -103.5289 254° West 400 460 28,600 -2,220 Descending Denver Center
10:09PM 40.4325 -103.6647 254° West 388 447 26,400 -2,160 Descending Denver Center
10:10PM 40.4039 -103.8006 255° West 386 444 24,200 -2,040 Descending Denver Center
10:11PM 40.3711 -103.9419 253° West 368 423 22,200 -1,500 Descending Denver Center
10:12PM 40.3178 -104.0464 236° Southwest 360 414 21,100 -1,500 Descending Denver Center
10:13PM 40.2403 -104.1339 221° Southwest 344 396 19,200 -1,740 Descending Denver Center
10:14PM 40.1669 -104.2097 218° Southwest 338 389 17,600 -1,380 Descending Denver Center
10:15PM 40.0975 -104.2864 220° Southwest 329 379 16,400 -1,440 Descending Denver Center
10:16PM 40.0264 -104.3639 220° Southwest 311 358 14,700 -1,560 Descending Denver Center
10:17PM 39.9833 -104.4167 223° Southwest 302 348 13,600 -1,560 Descending Denver TRACON
10:18PM 39.9167 -104.4833 217° Southwest 298 343 12,000 -1,200 Descending Denver TRACON
10:19PM 39.8333 -104.5000 189° South 286 329 11,200 -720 Descending Denver TRACON
10:19PM 39.8089 -104.5019 183° South 281 323 11,100 -600 Descending Denver Center
10:20PM 39.7339 -104.5019 180° South 268 308 10,400 -720 Descending Denver Center
10:21PM 39.6592 -104.4986 178° South 246 283 9,700 -720 Descending Denver Center
10:22PM 39.6025 -104.5153 193° South 213 245 9,000 -840 Descending Denver Center
10:23PM 39.6061 -104.5836 274° West 198 228 8,000 -660 Descending Denver Center
10:24PM 39.6547 -104.6186 331° Northwest 181 208 7,700 -420 Descending Denver Center
10:26PM 39.7025 -104.6425 339° North 171 197 7,200 -360 Descending Denver Center
10:27PM 39.7514 -104.6431 359° North 162 186 7,000 -540 Descending Denver Center
10:28PM 39.7936 -104.6431 360° North 152 175 6,200 -780 Descending Denver Center
10:29PM 39.8306 -104.6417 North 136 157 5,500 -720 Descending Denver Center
10:31PM 39.8500 -104.6667 North  Level FlightAware Approximate
10:38PM 39.8617 -104.6732 North  Level Estimated
10:39PM 39.8617 -104.6732 North  Level Estimated
10:40PM 39.8617 -104.6732 North  Level Estimated